Time;durP1;ratioP1;P1;durP2;ratioP2;P2;SDS_P1;SDS_P2;PMS_P1;PMS_P2;Temp;Humidity;BMP_temperature;BMP_pressure;BME280_temperature;BME280_humidity;BME280_pressure;Samples;Min_cycle;Max_cycle;Signal;HPM_P1;HPM_P2
2021/12/05 00:22:11;;;;;;;6.27;3.03;;;;;;;;;;4973065;28;20049;-58
2021/12/05 00:24:41;;;;;;;8.43;5.10;;;;;;;;;;4974977;28;20031;-57
2021/12/05 00:27:16;;;;;;;12.07;4.23;;;;;;;;;;4975713;28;20046;-57
2021/12/05 00:29:57;;;;;;;8.27;4.65;;;;;;;;;;4976307;28;20031;-57
2021/12/05 00:54:08;;;;;;;14.07;3.93;;;;;;;;;;4975844;28;20035;-57
2021/12/05 01:09:44;;;;;;;15.60;3.83;;;;;;;;;;4975373;28;20433;-57
2021/12/05 01:15:05;;;;;;;10.93;3.90;;;;;;;;;;4975532;28;20035;-58
2021/12/05 01:17:47;;;;;;;6.80;3.30;;;;;;;;;;4975181;28;20026;-57
2021/12/05 01:20:16;;;;;;;9.17;3.73;;;;;;;;;;4973203;28;20030;-58
2021/12/05 01:22:50;;;;;;;5.60;3.50;;;;;;;;;;4969789;28;20129;-57
2021/12/05 01:25:30;;;;;;;6.47;3.90;;;;;;;;;;4969930;28;20035;-57
2021/12/05 01:28:05;;;;;;;5.10;3.43;;;;;;;;;;4969910;28;20039;-57
2021/12/05 01:33:29;;;;;;;;;;;;;;;;;;4975343;28;20066;-57
2021/12/05 01:57:47;;;;;;;10.27;4.33;;;;;;;;;;4953706;28;20426;-57
2021/12/05 02:38:11;;;;;;;15.27;5.17;;;;;;;;;;4951127;28;20438;-59
2021/12/05 02:45:57;;;;;;;19.97;5.70;;;;;;;;;;4973135;28;20034;-58
2021/12/05 02:48:27;;;;;;;9.17;4.50;;;;;;;;;;4973451;28;20035;-58
2021/12/05 02:50:53;;;;;;;11.30;4.50;;;;;;;;;;4968118;28;20033;-59
2021/12/05 02:53:31;;;;;;;7.43;4.83;;;;;;;;;;4968287;28;20030;-59
2021/12/05 02:55:58;;;;;;;11.73;4.70;;;;;;;;;;4967876;28;20501;-58
2021/12/05 03:03:28;;;;;;;8.50;5.38;;;;;;;;;;4973450;28;20034;-59
2021/12/05 03:06:02;;;;;;;12.73;5.80;;;;;;;;;;4973284;28;20381;-58
2021/12/05 03:08:28;;;;;;;10.30;6.43;;;;;;;;;;4972949;28;20118;-58
2021/12/05 03:10:57;;;;;;;14.90;7.53;;;;;;;;;;4972391;28;20390;-59
2021/12/05 03:13:24;;;;;;;14.80;6.63;;;;;;;;;;4968031;28;20027;-59
2021/12/05 03:15:51;;;;;;;12.70;6.60;;;;;;;;;;4968129;28;20438;-59
2021/12/05 03:18:18;;;;;;;11.50;5.07;;;;;;;;;;4968102;28;20031;-59
2021/12/05 03:20:45;;;;;;;12.63;6.43;;;;;;;;;;4968040;28;20035;-58
2021/12/05 03:23:12;;;;;;;8.67;4.83;;;;;;;;;;4972771;28;20030;-58
2021/12/05 03:25:38;;;;;;;8.17;5.23;;;;;;;;;;4973407;28;20029;-58
2021/12/05 03:28:07;;;;;;;10.17;5.27;;;;;;;;;;4972773;28;20101;-58
2021/12/05 03:30:34;;;;;;;16.23;8.70;;;;;;;;;;4973236;28;20051;-59
2021/12/05 03:33:02;;;;;;;12.03;6.77;;;;;;;;;;4972836;28;20408;-58
2021/12/05 03:35:30;;;;;;;13.10;7.97;;;;;;;;;;4967825;28;20807;-58
2021/12/05 03:37:58;;;;;;;12.57;7.63;;;;;;;;;;4967445;28;20109;-58
2021/12/05 03:40:27;;;;;;;12.23;7.07;;;;;;;;;;4967760;28;20053;-58
2021/12/05 03:42:55;;;;;;;10.23;6.43;;;;;;;;;;4967602;28;20067;-59
2021/12/05 03:45:34;;;;;;;9.00;5.53;;;;;;;;;;4973171;28;20027;-56
2021/12/05 03:48:01;;;;;;;7.80;5.37;;;;;;;;;;4969209;28;20031;-56
2021/12/05 03:50:28;;;;;;;14.07;7.30;;;;;;;;;;4972682;28;20019;-56
2021/12/05 03:52:55;;;;;;;18.00;5.43;;;;;;;;;;4973265;28;20019;-56
2021/12/05 03:55:22;;;;;;;11.57;6.10;;;;;;;;;;4972101;28;20027;-56
2021/12/05 03:57:49;;;;;;;12.17;7.10;;;;;;;;;;4967977;28;20031;-56
2021/12/05 04:00:23;;;;;;;11.67;6.77;;;;;;;;;;4971256;28;20027;-57
2021/12/05 04:02:51;;;;;;;15.20;6.33;;;;;;;;;;4968735;28;20466;-56
2021/12/05 04:05:18;;;;;;;8.97;5.43;;;;;;;;;;4967488;28;20031;-57
2021/12/05 04:07:45;;;;;;;10.13;6.07;;;;;;;;;;4956738;29;20039;-57
2021/12/05 04:10:12;;;;;;;8.77;5.10;;;;;;;;;;4954651;29;20045;-56
2021/12/05 04:12:39;;;;;;;10.70;6.07;;;;;;;;;;4956906;29;20015;-56
2021/12/05 04:15:07;;;;;;;10.53;6.60;;;;;;;;;;4956358;29;20039;-57
2021/12/05 04:17:34;;;;;;;13.33;7.30;;;;;;;;;;4955732;29;20074;-56
2021/12/05 04:20:00;;;;;;;8.53;5.13;;;;;;;;;;4951321;29;20370;-56
2021/12/05 04:22:27;;;;;;;7.97;5.33;;;;;;;;;;4951531;29;20933;-56
2021/12/05 04:24:54;;;;;;;9.13;6.00;;;;;;;;;;4951417;29;20019;-56
2021/12/05 04:27:21;;;;;;;11.23;6.17;;;;;;;;;;4963269;28;20035;-57
2021/12/05 04:29:47;;;;;;;11.80;6.10;;;;;;;;;;4975921;28;20501;-56
2021/12/05 04:32:14;;;;;;;8.40;4.93;;;;;;;;;;4976178;28;20098;-56
2021/12/05 04:34:41;;;;;;;13.53;7.77;;;;;;;;;;4975638;28;20027;-56
2021/12/05 04:37:08;;;;;;;13.50;7.77;;;;;;;;;;4976022;28;20439;-56
2021/12/05 04:39:37;;;;;;;11.33;6.70;;;;;;;;;;4974673;28;20048;-56
2021/12/05 04:42:04;;;;;;;13.47;9.30;;;;;;;;;;4970188;28;20027;-56
2021/12/05 04:44:32;;;;;;;11.20;6.77;;;;;;;;;;4970316;28;20096;-56
2021/12/05 04:47:01;;;;;;;12.73;7.30;;;;;;;;;;4970093;28;20050;-56
2021/12/05 04:49:28;;;;;;;12.13;8.33;;;;;;;;;;4969681;28;20034;-56
2021/12/05 04:51:55;;;;;;;14.33;8.10;;;;;;;;;;4975453;28;20027;-57
2021/12/05 04:54:22;;;;;;;12.20;6.03;;;;;;;;;;4975510;28;20031;-58
2021/12/05 04:56:49;;;;;;;11.63;7.30;;;;;;;;;;4975217;28;20034;-58
2021/12/05 04:59:23;;;;;;;13.67;8.90;;;;;;;;;;4975167;28;20050;-58
2021/12/05 05:01:51;;;;;;;14.97;7.90;;;;;;;;;;4957850;28;20023;-58
2021/12/05 05:06:51;;;;;;;13.73;7.77;;;;;;;;;;4969807;28;20081;-58
2021/12/05 05:09:19;;;;;;;14.73;7.40;;;;;;;;;;4968980;28;20050;-58
2021/12/05 05:11:46;;;;;;;9.10;6.00;;;;;;;;;;4969776;28;20057;-58
2021/12/05 05:14:14;;;;;;;9.53;6.33;;;;;;;;;;4975439;28;20019;-58
2021/12/05 05:16:44;;;;;;;9.17;6.13;;;;;;;;;;4974954;28;20031;-58
2021/12/05 05:19:14;;;;;;;7.63;4.77;;;;;;;;;;4975121;28;20023;-56
2021/12/05 05:22:01;;;;;;;9.83;5.70;;;;;;;;;;4975139;28;20037;-56
2021/12/05 05:41:16;;;;;;;11.82;5.80;;;;;;;;;;4975131;28;20101;-56
2021/12/05 05:43:19;;;;;;;7.97;5.17;;;;;;;;;;4969245;28;20046;-56
2021/12/05 05:48:39;;;;;;;8.07;4.47;;;;;;;;;;4969538;28;20157;-56
2021/12/05 05:51:08;;;;;;;10.05;6.10;;;;;;;;;;4969118;28;20121;-56
2021/12/05 05:53:34;;;;;;;11.83;7.23;;;;;;;;;;4969329;28;20031;-56
2021/12/05 05:56:02;;;;;;;10.43;6.10;;;;;;;;;;4968698;28;20223;-56
2021/12/05 05:58:43;;;;;;;12.30;6.77;;;;;;;;;;4974017;28;20039;-56
2021/12/05 06:01:19;;;;;;;15.00;7.73;;;;;;;;;;4974416;28;20034;-56
2021/12/05 06:03:50;;;;;;;12.90;7.40;;;;;;;;;;4974516;28;20454;-56
2021/12/05 06:06:21;;;;;;;11.40;6.63;;;;;;;;;;4974355;28;20038;-56
2021/12/05 06:08:48;;;;;;;9.40;5.43;;;;;;;;;;4973265;28;20042;-56
2021/12/05 06:11:16;;;;;;;7.07;4.83;;;;;;;;;;4967382;28;20023;-56
2021/12/05 06:13:49;;;;;;;10.30;6.20;;;;;;;;;;4968975;28;20054;-56
2021/12/05 06:16:18;;;;;;;11.63;6.03;;;;;;;;;;4968803;28;20985;-55
2021/12/05 06:18:46;;;;;;;8.63;5.10;;;;;;;;;;4969284;28;20771;-57
2021/12/05 06:21:14;;;;;;;7.90;4.80;;;;;;;;;;4973069;28;20094;-56
2021/12/05 06:23:40;;;;;;;9.70;5.97;;;;;;;;;;4973984;28;20019;-56
2021/12/05 06:26:09;;;;;;;10.13;6.13;;;;;;;;;;4973985;28;20050;-55
2021/12/05 06:28:41;;;;;;;9.10;5.10;;;;;;;;;;4973851;28;20050;-55
2021/12/05 06:39:49;;;;;;;6.40;4.03;;;;;;;;;;4927126;29;20032;-55
2021/12/05 06:42:49;;;;;;;12.77;5.90;;;;;;;;;;4931175;29;20278;-55
2021/12/05 06:48:00;;;;;;;12.95;6.38;;;;;;;;;;4973171;28;20323;-56
2021/12/05 06:50:27;;;;;;;10.27;6.63;;;;;;;;;;4973138;28;20049;-56
2021/12/05 06:52:54;;;;;;;14.00;7.83;;;;;;;;;;4973016;28;20257;-55
2021/12/05 06:55:21;;;;;;;11.13;6.40;;;;;;;;;;4968239;28;20318;-55
2021/12/05 06:57:48;;;;;;;9.17;5.97;;;;;;;;;;4967737;28;20265;-56
2021/12/05 07:00:17;;;;;;;8.03;5.17;;;;;;;;;;4968171;28;20268;-55
2021/12/05 07:02:44;;;;;;;8.93;5.67;;;;;;;;;;4966887;28;20343;-55
2021/12/05 07:05:38;;;;;;;9.33;5.60;;;;;;;;;;4955282;28;20273;-55
2021/12/05 07:07:58;;;;;;;9.67;5.67;;;;;;;;;;4971506;28;20300;-55
2021/12/05 07:10:25;;;;;;;8.53;5.13;;;;;;;;;;4973026;28;20767;-55
2021/12/05 07:13:42;;;;;;;12.47;6.87;;;;;;;;;;4973318;28;20268;-55
2021/12/05 07:16:12;;;;;;;11.77;7.23;;;;;;;;;;4970374;28;20795;-55
2021/12/05 07:18:54;;;;;;;8.30;5.37;;;;;;;;;;4968062;28;20711;-54
2021/12/05 07:40:33;;;;;;;11.80;6.72;;;;;;;;;;4971712;28;20350;-55
2021/12/05 07:43:00;;;;;;;11.23;5.93;;;;;;;;;;4971750;28;20035;-54
2021/12/05 07:45:34;;;;;;;9.83;5.67;;;;;;;;;;4971205;28;20273;-55
2021/12/05 07:48:09;;;;;;;9.40;5.43;;;;;;;;;;4972879;28;20288;-54
2021/12/05 07:50:47;;;;;;;11.40;6.47;;;;;;;;;;4976903;28;20261;-54
2021/12/05 07:53:23;;;;;;;9.30;6.10;;;;;;;;;;4976637;28;20260;-55
2021/12/05 07:55:52;;;;;;;;;;;;;;;;;;4976660;28;20301;-55
2021/12/05 08:01:20;;;;;;;8.13;4.77;;;;;;;;;;4973292;28;20281;-55
2021/12/05 08:14:57;;;;;;;11.10;5.38;;;;;;;;;;4976736;28;20089;-54
2021/12/05 08:17:24;;;;;;;9.03;5.40;;;;;;;;;;4976103;28;20038;-54
2021/12/05 08:19:50;;;;;;;8.50;4.77;;;;;;;;;;4976489;28;20263;-54
2021/12/05 08:22:19;;;;;;;8.13;4.87;;;;;;;;;;4974351;28;20732;-54
2021/12/05 08:24:48;;;;;;;7.87;5.03;;;;;;;;;;4970883;28;20264;-54
2021/12/05 08:27:15;;;;;;;8.67;5.60;;;;;;;;;;4970743;28;20324;-54
2021/12/05 08:29:50;;;;;;;9.67;5.77;;;;;;;;;;4970643;28;20261;-54
2021/12/05 08:32:32;;;;;;;7.22;4.45;;;;;;;;;;4971868;28;20320;-54
2021/12/05 08:38:05;;;;;;;6.37;4.03;;;;;;;;;;4976095;28;20272;-54
2021/12/05 08:43:06;;;;;;;7.30;4.63;;;;;;;;;;4975650;28;20404;-54
2021/12/05 09:30:10;;;;;;;8.37;5.40;;;;;;;;;;4971788;28;20269;-55
2021/12/05 10:08:17;;;;;;;9.00;4.60;;;;;;;;;;4974282;28;20355;-54
2021/12/05 10:10:55;;;;;;;8.40;4.63;;;;;;;;;;4973562;28;20594;-54
2021/12/05 10:13:36;;;;;;;7.53;4.37;;;;;;;;;;4972187;28;20276;-55
2021/12/05 10:16:20;;;;;;;7.00;4.20;;;;;;;;;;4968481;28;20269;-54
2021/12/05 10:36:22;;;;;;;6.73;4.33;;;;;;;;;;4964916;28;20324;-54
2021/12/05 10:38:49;;;;;;;9.10;3.90;;;;;;;;;;4966353;28;20650;-54
2021/12/05 10:41:46;;;;;;;7.40;4.47;;;;;;;;;;4968049;28;20272;-54
2021/12/05 10:44:07;;;;;;;9.13;4.83;;;;;;;;;;4966559;28;20332;-54
2021/12/05 10:46:34;;;;;;;7.07;4.00;;;;;;;;;;4972509;28;20613;-54
2021/12/05 10:49:04;;;;;;;6.60;4.23;;;;;;;;;;4973720;28;20292;-54
2021/12/05 10:51:32;;;;;;;10.03;4.40;;;;;;;;;;4973223;28;20260;-54
2021/12/05 10:54:00;;;;;;;6.40;3.80;;;;;;;;;;4973701;28;20257;-54
2021/12/05 10:56:28;;;;;;;7.53;4.00;;;;;;;;;;4973459;28;20260;-54
2021/12/05 10:59:07;;;;;;;8.60;4.33;;;;;;;;;;4968951;28;20260;-55
2021/12/05 11:01:42;;;;;;;7.03;4.03;;;;;;;;;;4968086;28;20273;-54
2021/12/05 11:04:19;;;;;;;7.60;3.88;;;;;;;;;;4968192;28;20259;-55
2021/12/05 11:07:03;;;;;;;6.43;3.73;;;;;;;;;;4967780;28;20033;-55
2021/12/05 11:09:34;;;;;;;8.10;4.17;;;;;;;;;;4973201;28;20680;-54
2021/12/05 11:12:03;;;;;;;5.70;3.47;;;;;;;;;;4973167;28;20315;-54
2021/12/05 11:14:34;;;;;;;7.47;4.47;;;;;;;;;;4973525;28;20257;-54
2021/12/05 11:17:14;;;;;;;8.20;4.67;;;;;;;;;;4973475;28;20261;-54
2021/12/05 11:19:41;;;;;;;8.50;4.10;;;;;;;;;;4971633;28;20249;-54
2021/12/05 11:22:11;;;;;;;10.43;4.37;;;;;;;;;;4967711;28;20273;-54
2021/12/05 11:24:43;;;;;;;7.17;4.17;;;;;;;;;;4968060;28;20269;-54
2021/12/05 11:27:15;;;;;;;8.83;4.30;;;;;;;;;;4967825;28;20296;-54
2021/12/05 11:29:42;;;;;;;8.63;5.27;;;;;;;;;;4969185;28;20268;-54
2021/12/05 11:32:10;;;;;;;10.03;4.10;;;;;;;;;;4973152;28;20315;-54
2021/12/05 11:34:37;;;;;;;8.37;5.70;;;;;;;;;;4972898;28;20315;-54
2021/12/05 11:37:04;;;;;;;9.83;6.23;;;;;;;;;;4973153;28;20261;-54
2021/12/05 11:39:31;;;;;;;8.10;5.20;;;;;;;;;;4973257;28;20295;-54
2021/12/05 11:41:57;;;;;;;8.30;5.13;;;;;;;;;;4970846;28;20276;-54
2021/12/05 11:44:25;;;;;;;9.00;4.77;;;;;;;;;;4967705;28;20277;-54
2021/12/05 11:46:52;;;;;;;11.60;4.43;;;;;;;;;;4967840;28;20268;-54
2021/12/05 11:49:21;;;;;;;10.43;6.27;;;;;;;;;;4967448;28;20669;-54
2021/12/05 11:51:52;;;;;;;15.33;9.00;;;;;;;;;;4968624;28;20661;-54
2021/12/05 11:54:19;;;;;;;14.87;9.70;;;;;;;;;;4973040;28;20253;-54
2021/12/05 11:57:03;;;;;;;14.57;8.80;;;;;;;;;;4973040;28;20260;-54
2021/12/05 11:59:33;;;;;;;13.37;6.73;;;;;;;;;;4972779;28;20249;-54
2021/12/05 12:02:00;;;;;;;12.37;7.80;;;;;;;;;;4972950;28;20257;-54
2021/12/05 12:04:40;;;;;;;12.47;7.70;;;;;;;;;;4970493;28;20348;-54
2021/12/05 12:07:16;;;;;;;12.70;8.07;;;;;;;;;;4967888;28;20711;-54
2021/12/05 12:09:43;;;;;;;12.48;7.65;;;;;;;;;;4967019;28;20253;-54
2021/12/05 12:12:10;;;;;;;13.63;8.33;;;;;;;;;;4967397;28;20030;-54
2021/12/05 12:14:37;;;;;;;15.43;9.17;;;;;;;;;;4970227;28;20644;-54
2021/12/05 12:17:07;;;;;;;18.30;9.03;;;;;;;;;;4972785;28;20265;-55
2021/12/05 12:19:36;;;;;;;16.50;9.53;;;;;;;;;;4974421;28;20260;-54
2021/12/05 12:22:04;;;;;;;18.13;9.63;;;;;;;;;;4976022;28;20368;-54
2021/12/05 12:24:31;;;;;;;20.47;10.93;;;;;;;;;;4976247;28;20245;-55
2021/12/05 12:26:58;;;;;;;30.70;16.07;;;;;;;;;;4972742;28;20676;-54
2021/12/05 12:29:26;;;;;;;40.27;18.63;;;;;;;;;;4970940;28;20280;-54
2021/12/05 12:31:54;;;;;;;22.37;12.37;;;;;;;;;;4970588;28;20272;-54
2021/12/05 12:34:22;;;;;;;24.23;10.23;;;;;;;;;;4970779;28;20365;-54
2021/12/05 12:36:51;;;;;;;21.93;10.10;;;;;;;;;;4973049;28;20272;-54
2021/12/05 12:39:18;;;;;;;23.63;11.23;;;;;;;;;;4976229;28;20253;-54
2021/12/05 12:42:05;;;;;;;21.53;10.63;;;;;;;;;;4975960;28;20264;-54
2021/12/05 12:44:32;;;;;;;17.73;10.07;;;;;;;;;;4975697;28;20350;-54
2021/12/05 12:47:00;;;;;;;15.67;8.53;;;;;;;;;;4975434;28;20268;-54
2021/12/05 12:49:37;;;;;;;26.27;11.37;;;;;;;;;;4971597;28;20257;-54
2021/12/05 12:52:10;;;;;;;26.80;11.93;;;;;;;;;;4970266;28;20263;-54
2021/12/05 12:54:37;;;;;;;19.00;8.07;;;;;;;;;;4970296;28;20303;-54
2021/12/05 12:57:11;;;;;;;13.70;7.17;;;;;;;;;;4970347;28;20315;-54
2021/12/05 12:59:40;;;;;;;20.15;8.38;;;;;;;;;;4974520;28;20257;-54
2021/12/05 13:10:40;;;;;;;12.80;7.87;;;;;;;;;;4974175;28;20268;-54
2021/12/05 13:13:20;;;;;;;15.57;7.97;;;;;;;;;;4969839;28;20253;-54
2021/12/05 13:15:52;;;;;;;14.70;8.17;;;;;;;;;;4970048;28;20249;-54
2021/12/05 13:18:25;;;;;;;14.27;8.10;;;;;;;;;;4969886;28;20300;-54
2021/12/05 13:20:56;;;;;;;13.20;7.33;;;;;;;;;;4972255;28;20659;-54
2021/12/05 13:23:31;;;;;;;14.13;8.30;;;;;;;;;;4975077;28;20739;-54
2021/12/05 13:26:12;;;;;;;24.80;10.00;;;;;;;;;;4975201;28;20257;-54
2021/12/05 13:28:44;;;;;;;20.30;10.40;;;;;;;;;;4975175;28;20601;-54
2021/12/05 13:31:29;;;;;;;19.67;8.17;;;;;;;;;;4974390;28;20292;-54
2021/12/05 13:34:14;;;;;;;15.70;7.50;;;;;;;;;;4970315;28;20256;-54
2021/12/05 13:36:41;;;;;;;14.60;8.13;;;;;;;;;;4969346;28;20022;-54
2021/12/05 13:39:26;;;;;;;17.43;8.90;;;;;;;;;;4969318;28;20433;-54
2021/12/05 13:42:05;;;;;;;16.17;8.50;;;;;;;;;;4969519;28;20740;-54
2021/12/05 13:44:49;;;;;;;15.70;8.30;;;;;;;;;;4974923;28;20027;-54
2021/12/05 13:47:18;;;;;;;15.32;8.05;;;;;;;;;;4974997;28;20256;-54
2021/12/05 13:49:47;;;;;;;11.87;7.70;;;;;;;;;;4974767;28;20479;-53
2021/12/05 13:52:31;;;;;;;15.03;8.27;;;;;;;;;;4974416;28;20276;-53
2021/12/05 13:55:36;;;;;;;11.07;7.82;;;;;;;;;;4971961;28;20272;-54
2021/12/05 13:58:21;;;;;;;14.93;8.20;;;;;;;;;;4890620;29;20029;-54
2021/12/05 14:01:07;;;;;;;15.90;8.20;;;;;;;;;;4946815;29;20270;-55
2021/12/05 14:03:52;;;;;;;13.37;8.60;;;;;;;;;;4949704;29;20031;-56
2021/12/05 14:06:38;;;;;;;17.30;8.13;;;;;;;;;;4954587;29;20598;-56
2021/12/05 14:09:09;;;;;;;10.60;6.93;;;;;;;;;;4955225;29;20039;-56
2021/12/05 14:11:39;;;;;;;9.60;6.67;;;;;;;;;;4954886;29;20038;-56
2021/12/05 14:14:06;;;;;;;10.13;6.50;;;;;;;;;;4954721;29;20028;-57
2021/12/05 14:16:39;;;;;;;10.30;6.63;;;;;;;;;;4954135;29;20056;-56
2021/12/05 14:19:07;;;;;;;10.27;6.77;;;;;;;;;;4949667;29;20102;-56
2021/12/05 14:21:34;;;;;;;11.43;6.87;;;;;;;;;;4949531;29;20125;-57
2021/12/05 14:24:02;;;;;;;11.00;6.53;;;;;;;;;;4949525;29;20223;-56
2021/12/05 14:26:30;;;;;;;11.50;7.30;;;;;;;;;;4955983;28;20023;-56
2021/12/05 14:29:02;;;;;;;10.13;6.03;;;;;;;;;;4973744;28;20039;-56
2021/12/05 14:31:30;;;;;;;11.10;7.37;;;;;;;;;;4974258;28;20109;-56
2021/12/05 14:33:57;;;;;;;8.70;6.30;;;;;;;;;;4974012;28;20023;-56
2021/12/05 14:36:28;;;;;;;11.97;6.87;;;;;;;;;;4973825;28;20030;-57
2021/12/05 14:39:13;;;;;;;14.77;7.30;;;;;;;;;;4972585;28;20030;-56
2021/12/05 14:41:40;;;;;;;16.55;7.68;;;;;;;;;;4967724;28;20023;-57
2021/12/05 14:44:07;;;;;;;12.03;8.20;;;;;;;;;;4968128;28;20053;-56
2021/12/05 14:46:34;;;;;;;12.37;8.00;;;;;;;;;;4968412;28;20027;-56
2021/12/05 14:49:03;;;;;;;15.20;9.30;;;;;;;;;;4969693;28;20034;-56
2021/12/05 14:51:47;;;;;;;12.07;8.53;;;;;;;;;;4973406;28;20117;-56
2021/12/05 14:54:23;;;;;;;11.38;8.15;;;;;;;;;;4973467;28;20082;-56
2021/12/05 14:56:50;;;;;;;13.83;8.20;;;;;;;;;;4971893;28;20037;-57
2021/12/05 14:59:18;;;;;;;16.70;8.20;;;;;;;;;;4971882;28;20031;-57
2021/12/05 15:01:46;;;;;;;12.23;9.43;;;;;;;;;;4968907;28;20093;-57
2021/12/05 15:04:14;;;;;;;11.30;8.43;;;;;;;;;;4967088;28;20457;-57
2021/12/05 15:06:43;;;;;;;14.63;7.73;;;;;;;;;;4967017;28;20023;-56
2021/12/05 15:09:19;;;;;;;12.57;7.43;;;;;;;;;;4966866;28;20066;-55
2021/12/05 15:11:54;;;;;;;8.77;5.83;;;;;;;;;;4970158;28;20449;-54
2021/12/05 15:14:21;;;;;;;9.10;6.30;;;;;;;;;;4973510;28;20023;-55
2021/12/05 15:16:55;;;;;;;6.20;4.43;;;;;;;;;;4972951;28;20489;-55
2021/12/05 15:19:23;;;;;;;6.25;4.00;;;;;;;;;;4973258;28;20018;-55
2021/12/05 15:21:50;;;;;;;7.60;5.40;;;;;;;;;;4973333;28;20043;-54
2021/12/05 15:24:18;;;;;;;9.57;5.97;;;;;;;;;;4969240;28;20110;-55
2021/12/05 15:26:45;;;;;;;8.47;5.10;;;;;;;;;;4967899;28;20842;-55
2021/12/05 15:29:12;;;;;;;9.20;6.77;;;;;;;;;;4967654;28;20074;-55
2021/12/05 15:31:40;;;;;;;11.23;6.20;;;;;;;;;;4967853;28;20061;-55
2021/12/05 15:34:27;;;;;;;8.47;6.10;;;;;;;;;;4970703;28;20027;-55
2021/12/05 15:36:54;;;;;;;11.97;7.97;;;;;;;;;;4973269;28;20542;-55
2021/12/05 15:39:23;;;;;;;9.43;7.10;;;;;;;;;;4973231;28;20018;-55
2021/12/05 15:41:55;;;;;;;10.03;7.00;;;;;;;;;;4973139;28;20027;-54
2021/12/05 15:44:29;;;;;;;12.47;7.53;;;;;;;;;;4972847;28;20379;-55
2021/12/05 15:47:04;;;;;;;10.43;7.07;;;;;;;;;;4967991;28;20027;-55
2021/12/05 15:50:03;;;;;;;10.00;7.68;;;;;;;;;;4967532;28;20038;-55
2021/12/05 15:52:33;;;;;;;11.33;7.60;;;;;;;;;;4924719;28;20039;-55
2021/12/05 15:55:00;;;;;;;11.20;7.30;;;;;;;;;;4971491;28;20039;-55
2021/12/05 15:57:32;;;;;;;11.30;7.13;;;;;;;;;;4976712;28;20018;-58
2021/12/05 16:00:00;;;;;;;10.93;7.90;;;;;;;;;;4976850;28;20057;-57
2021/12/05 16:02:27;;;;;;;13.27;8.10;;;;;;;;;;4976828;28;20023;-57
2021/12/05 16:04:56;;;;;;;9.17;6.53;;;;;;;;;;4976270;28;20030;-57
2021/12/05 16:07:26;;;;;;;9.03;6.63;;;;;;;;;;4975315;28;20058;-57
2021/12/05 16:09:53;;;;;;;11.43;8.30;;;;;;;;;;4971037;28;20470;-58
2021/12/05 16:12:21;;;;;;;14.27;9.10;;;;;;;;;;4971013;28;20163;-57
2021/12/05 16:14:52;;;;;;;12.03;7.23;;;;;;;;;;4970912;28;20030;-57
2021/12/05 16:17:19;;;;;;;16.00;8.90;;;;;;;;;;4971186;28;20064;-57
2021/12/05 16:20:07;;;;;;;13.00;9.00;;;;;;;;;;4976034;28;20030;-57
2021/12/05 16:22:34;;;;;;;11.77;8.50;;;;;;;;;;4976384;28;20031;-57
2021/12/05 16:25:16;;;;;;;17.87;9.37;;;;;;;;;;4976210;28;20078;-57
2021/12/05 16:27:50;;;;;;;12.17;8.53;;;;;;;;;;4976250;28;20085;-57
2021/12/05 16:30:24;;;;;;;13.40;7.68;;;;;;;;;;4973626;28;20042;-57
2021/12/05 16:32:51;;;;;;;12.68;7.82;;;;;;;;;;4971061;28;20027;-57
2021/12/05 16:35:32;;;;;;;12.27;6.60;;;;;;;;;;4970752;28;20107;-57
2021/12/05 16:37:59;;;;;;;10.53;7.07;;;;;;;;;;4970776;28;20078;-58
2021/12/05 16:40:27;;;;;;;12.73;7.43;;;;;;;;;;4973437;28;20478;-58
2021/12/05 16:43:11;;;;;;;13.97;8.23;;;;;;;;;;4975644;28;20067;-58
2021/12/05 16:45:38;;;;;;;13.20;8.43;;;;;;;;;;4975795;28;20027;-57
2021/12/05 16:48:06;;;;;;;10.27;6.57;;;;;;;;;;4975965;28;20106;-57
2021/12/05 16:50:33;;;;;;;11.57;7.20;;;;;;;;;;4975952;28;20027;-58
2021/12/05 16:53:00;;;;;;;14.63;7.90;;;;;;;;;;4971885;28;20026;-58
2021/12/05 16:55:29;;;;;;;12.33;7.13;;;;;;;;;;4970405;28;20090;-59
2021/12/05 16:58:09;;;;;;;9.97;7.00;;;;;;;;;;4970288;28;20148;-58
2021/12/05 17:00:38;;;;;;;8.50;6.37;;;;;;;;;;4970138;28;20109;-59
2021/12/05 17:03:07;;;;;;;12.57;7.20;;;;;;;;;;4974423;28;20030;-58
2021/12/05 17:05:39;;;;;;;10.67;7.50;;;;;;;;;;4974783;28;20042;-58
2021/12/05 17:08:13;;;;;;;12.23;7.30;;;;;;;;;;4975370;28;20079;-59
2021/12/05 17:10:42;;;;;;;10.85;8.13;;;;;;;;;;4975231;28;20035;-58
2021/12/05 17:13:13;;;;;;;10.13;7.07;;;;;;;;;;4975115;28;20035;-58
2021/12/05 17:15:46;;;;;;;11.83;7.07;;;;;;;;;;4970245;28;20022;-58
2021/12/05 17:18:19;;;;;;;13.90;7.90;;;;;;;;;;4970155;28;20467;-58
2021/12/05 17:20:48;;;;;;;12.40;7.73;;;;;;;;;;4969581;28;20043;-59
2021/12/05 17:23:26;;;;;;;14.23;6.43;;;;;;;;;;4969974;28;20081;-58
2021/12/05 17:25:54;;;;;;;13.53;7.27;;;;;;;;;;4975240;28;20054;-58
2021/12/05 17:28:36;;;;;;;19.80;8.43;;;;;;;;;;4975041;28;20035;-59
2021/12/05 17:31:04;;;;;;;13.07;8.53;;;;;;;;;;4974824;28;20065;-59
2021/12/05 17:33:38;;;;;;;14.90;9.03;;;;;;;;;;4975470;28;20812;-59
2021/12/05 17:36:23;;;;;;;12.10;9.05;;;;;;;;;;4974051;28;20038;-59
2021/12/05 17:38:51;;;;;;;8.93;6.63;;;;;;;;;;4969378;28;20058;-59
2021/12/05 17:41:18;;;;;;;11.70;8.70;;;;;;;;;;4969539;28;20027;-59
2021/12/05 17:43:45;;;;;;;11.73;8.97;;;;;;;;;;4969234;28;20019;-59
2021/12/05 17:46:12;;;;;;;10.30;7.47;;;;;;;;;;4970720;28;20027;-58
2021/12/05 17:48:40;;;;;;;12.67;7.60;;;;;;;;;;4974597;28;20114;-59
2021/12/05 17:51:08;;;;;;;13.03;7.53;;;;;;;;;;4974762;28;20026;-59
2021/12/05 17:53:36;;;;;;;12.30;7.30;;;;;;;;;;4974182;28;20418;-59
2021/12/05 17:56:12;;;;;;;9.87;6.53;;;;;;;;;;4974636;28;20073;-59
2021/12/05 17:58:55;;;;;;;13.43;7.33;;;;;;;;;;4969043;28;20050;-60
2021/12/05 18:04:07;;;;;;;12.07;7.70;;;;;;;;;;4969210;28;20173;-60
2021/12/05 18:06:35;;;;;;;10.50;7.03;;;;;;;;;;4968917;28;20110;-61
2021/12/05 18:09:02;;;;;;;12.20;7.67;;;;;;;;;;4971210;28;20177;-61
2021/12/05 18:11:29;;;;;;;9.93;6.60;;;;;;;;;;4973984;28;20471;-60
2021/12/05 18:13:58;;;;;;;10.30;6.70;;;;;;;;;;4974056;28;20181;-60
2021/12/05 18:16:27;;;;;;;8.70;5.60;;;;;;;;;;4972601;28;20458;-61
2021/12/05 18:18:58;;;;;;;11.23;6.00;;;;;;;;;;4973986;28;20038;-63
2021/12/05 18:21:26;;;;;;;8.47;5.67;;;;;;;;;;4971359;28;20037;-61
2021/12/05 18:23:54;;;;;;;8.47;5.97;;;;;;;;;;4968692;28;20022;-61
2021/12/05 18:26:21;;;;;;;10.90;6.17;;;;;;;;;;4967958;28;20449;-62
2021/12/05 18:28:49;;;;;;;8.77;6.00;;;;;;;;;;4968654;28;20192;-61
2021/12/05 18:31:19;;;;;;;11.93;6.27;;;;;;;;;;4970346;28;20042;-61
2021/12/05 18:33:52;;;;;;;7.53;4.60;;;;;;;;;;4973730;28;20129;-61
2021/12/05 18:36:20;;;;;;;11.03;5.60;;;;;;;;;;4973902;28;20027;-61
2021/12/05 18:38:48;;;;;;;8.43;4.93;;;;;;;;;;4973822;28;20127;-61
2021/12/05 18:41:17;;;;;;;6.03;4.37;;;;;;;;;;4973470;28;20038;-61
2021/12/05 18:43:44;;;;;;;10.63;4.70;;;;;;;;;;4971012;28;20038;-60
2021/12/05 18:46:11;;;;;;;9.07;3.90;;;;;;;;;;4968257;28;20140;-60
2021/12/05 18:48:39;;;;;;;5.07;3.40;;;;;;;;;;4968457;28;20038;-62
2021/12/05 18:51:06;;;;;;;8.50;2.90;;;;;;;;;;4968077;28;20035;-61
2021/12/05 18:53:33;;;;;;;8.40;3.20;;;;;;;;;;4970351;28;20038;-60
2021/12/05 18:56:00;;;;;;;4.87;2.70;;;;;;;;;;4973503;28;20030;-61
2021/12/05 18:58:27;;;;;;;4.67;2.97;;;;;;;;;;4973334;28;20027;-61
2021/12/05 19:06:35;;;;;;;4.83;2.40;;;;;;;;;;4969745;28;20049;-62
2021/12/05 19:09:24;;;;;;;6.30;2.67;;;;;;;;;;4968147;28;20047;-61
2021/12/05 19:11:55;;;;;;;4.40;2.67;;;;;;;;;;4968230;28;20437;-62
2021/12/05 19:14:23;;;;;;;4.07;2.33;;;;;;;;;;4968286;28;20421;-61
2021/12/05 19:16:51;;;;;;;3.70;2.53;;;;;;;;;;4971658;28;20106;-63
2021/12/05 19:19:18;;;;;;;3.37;2.00;;;;;;;;;;4973232;28;20025;-60
2021/12/05 19:21:47;;;;;;;4.27;2.13;;;;;;;;;;4973028;28;20092;-60
2021/12/05 19:24:14;;;;;;;4.53;2.30;;;;;;;;;;4972969;28;20030;-61
2021/12/05 19:26:42;;;;;;;6.27;2.17;;;;;;;;;;4973446;28;20157;-60
2021/12/05 19:29:08;;;;;;;3.80;1.90;;;;;;;;;;4971744;28;20039;-60
2021/12/05 19:31:35;;;;;;;2.20;1.47;;;;;;;;;;4971993;28;20038;-60
2021/12/05 19:34:02;;;;;;;2.83;1.50;;;;;;;;;;4971769;28;20042;-60
2021/12/05 19:36:30;;;;;;;2.27;1.20;;;;;;;;;;4971908;28;20053;-60
2021/12/05 19:38:58;;;;;;;2.40;1.53;;;;;;;;;;4975452;28;20089;-60
2021/12/05 19:41:26;;;;;;;4.10;1.00;;;;;;;;;;4976634;28;20034;-60
2021/12/05 19:43:53;;;;;;;2.33;1.20;;;;;;;;;;4976880;28;20033;-61
2021/12/05 19:46:21;;;;;;;1.33;0.77;;;;;;;;;;4977011;28;20031;-60
2021/12/05 19:48:48;;;;;;;2.33;1.00;;;;;;;;;;4976149;28;20425;-60
2021/12/05 19:51:17;;;;;;;2.17;1.07;;;;;;;;;;4972855;28;20039;-61
2021/12/05 19:53:45;;;;;;;2.50;1.30;;;;;;;;;;4971476;28;20019;-60
2021/12/05 19:56:13;;;;;;;1.87;1.10;;;;;;;;;;4971704;28;20053;-60
2021/12/05 19:58:40;;;;;;;3.17;1.77;;;;;;;;;;4971600;28;20487;-60
2021/12/05 20:01:07;;;;;;;1.27;0.80;;;;;;;;;;4974634;28;20022;-60
2021/12/05 20:03:35;;;;;;;1.23;0.83;;;;;;;;;;4976559;28;20431;-60
2021/12/05 20:06:03;;;;;;;1.77;0.70;;;;;;;;;;4976211;28;20051;-60
2021/12/05 20:08:29;;;;;;;1.87;0.73;;;;;;;;;;4976177;28;20082;-60
2021/12/05 20:10:56;;;;;;;1.80;1.20;;;;;;;;;;4976381;28;20069;-60
2021/12/05 20:13:23;;;;;;;4.37;1.30;;;;;;;;;;4972907;28;20030;-60
2021/12/05 20:15:50;;;;;;;2.13;1.10;;;;;;;;;;4971479;28;20027;-60